Time;durP1;ratioP1;P1;durP2;ratioP2;P2;SDS_P1;SDS_P2;PMS_P1;PMS_P2;Temp;Humidity;BMP_temperature;BMP_pressure;BME280_temperature;BME280_humidity;BME280_pressure;Samples;Min_cycle;Max_cycle;Signal;HPM_P1;HPM_P2
2023/10/03 00:00:56;;;;;;;9.90;6.40;;;;;;;12.36;100.00;98404.56;109774;1284;22439;-79
2023/10/03 00:03:38;;;;;;;9.40;6.50;;;;;;;12.45;100.00;98401.20;109877;1281;22305;-79
2023/10/03 00:06:07;;;;;;;9.20;6.80;;;;;;;12.55;100.00;98402.30;109872;1285;23060;-79
2023/10/03 00:08:35;;;;;;;9.10;6.30;;;;;;;12.58;100.00;98396.02;109858;1276;22245;-79
2023/10/03 00:11:04;;;;;;;9.40;7.00;;;;;;;12.62;100.00;98390.02;109889;1284;22190;-79
2023/10/03 00:13:33;;;;;;;9.50;6.90;;;;;;;12.75;100.00;98385.33;109773;1284;22363;-79
2023/10/03 00:16:00;;;;;;;10.10;6.60;;;;;;;12.84;100.00;98376.93;109895;1284;22996;-78
2023/10/03 00:18:29;;;;;;;10.60;6.10;;;;;;;12.95;100.00;98372.37;109859;1281;22139;-79
2023/10/03 00:20:57;;;;;;;11.50;6.70;;;;;;;13.06;100.00;98372.95;109847;1271;22435;-79
2023/10/03 00:23:27;;;;;;;10.50;6.30;;;;;;;13.10;100.00;98370.56;109883;1284;22845;-79
2023/10/03 00:25:56;;;;;;;9.60;6.60;;;;;;;13.10;100.00;98364.27;109887;1284;22105;-79
2023/10/03 00:28:33;;;;;;;10.40;6.80;;;;;;;13.06;100.00;98362.56;109892;1273;22259;-79
2023/10/03 00:31:09;;;;;;;10.10;6.60;;;;;;;13.08;100.00;98365.39;109719;1284;229212;-80
2023/10/03 00:33:37;;;;;;;12.10;7.20;;;;;;;13.06;100.00;98364.03;109893;1281;22834;-79
2023/10/03 00:36:15;;;;;;;10.40;7.30;;;;;;;13.05;100.00;98362.64;109881;1284;22478;-79
2023/10/03 00:38:45;;;;;;;12.70;6.80;;;;;;;13.01;100.00;98361.69;109810;1285;22290;-78
2023/10/03 00:41:13;;;;;;;10.50;6.50;;;;;;;13.02;100.00;98359.75;109808;1284;22212;-79
2023/10/03 00:44:11;;;;;;;10.40;5.70;;;;;;;13.02;100.00;98353.45;109887;1284;22304;-79
2023/10/03 00:46:39;;;;;;;9.50;5.90;;;;;;;13.02;100.00;98353.13;109628;1285;22159;-79
2023/10/03 00:49:14;;;;;;;12.20;6.80;;;;;;;12.97;100.00;98354.16;109890;1274;22353;-79
2023/10/03 00:51:45;;;;;;;8.50;6.80;;;;;;;12.89;100.00;98352.59;109875;1285;22197;-79
2023/10/03 00:54:14;;;;;;;9.80;6.60;;;;;;;12.85;100.00;98347.55;109879;1277;22208;-79
2023/10/03 00:56:43;;;;;;;10.70;7.30;;;;;;;12.84;100.00;98343.34;109872;1284;22857;-78
2023/10/03 00:59:11;;;;;;;13.90;9.50;;;;;;;12.89;100.00;98338.09;109868;1280;23386;-78
2023/10/03 01:01:41;;;;;;;12.30;9.60;;;;;;;12.94;100.00;98337.23;109872;1285;22817;-78
2023/10/03 01:04:15;;;;;;;9.50;6.90;;;;;;;12.98;100.00;98338.99;109887;1285;22258;-79
2023/10/03 01:06:44;;;;;;;11.10;7.30;;;;;;;12.96;100.00;98334.55;109890;1284;22210;-78
2023/10/03 01:09:20;;;;;;;11.20;7.10;;;;;;;12.92;100.00;98333.91;109866;1284;22191;-79
2023/10/03 01:11:51;;;;;;;11.10;6.30;;;;;;;12.93;100.00;98333.69;109870;1279;23097;-79
2023/10/03 01:14:20;;;;;;;11.50;7.10;;;;;;;12.89;100.00;98334.04;109819;1284;22422;-79
2023/10/03 01:16:48;;;;;;;9.20;6.10;;;;;;;12.86;100.00;98336.17;109775;1284;23221;-79
2023/10/03 01:19:25;;;;;;;8.30;6.30;;;;;;;12.85;100.00;98332.40;109889;1285;22163;-79
2023/10/03 01:21:53;;;;;;;8.50;6.80;;;;;;;12.78;100.00;98330.33;109869;1282;22223;-78
2023/10/03 01:24:25;;;;;;;13.90;5.90;;;;;;;12.75;100.00;98327.57;109900;1283;22894;-78
2023/10/03 01:26:55;;;;;;;10.60;6.60;;;;;;;12.70;100.00;98327.92;109873;1281;22248;-78
2023/10/03 01:29:23;;;;;;;9.80;6.60;;;;;;;12.68;100.00;98328.26;109894;1285;22115;-79
2023/10/03 01:31:52;;;;;;;8.90;5.90;;;;;;;12.67;100.00;98319.71;109872;1284;22914;-79
2023/10/03 01:34:20;;;;;;;8.40;5.60;;;;;;;12.68;100.00;98317.22;109876;1284;23617;-78
2023/10/03 01:36:48;;;;;;;9.90;6.50;;;;;;;12.67;100.00;98317.56;109791;1285;22998;-78
2023/10/03 01:39:17;;;;;;;8.10;6.30;;;;;;;12.60;100.00;98320.58;109855;1284;22985;-78
2023/10/03 01:41:45;;;;;;;8.20;6.60;;;;;;;12.57;100.00;98319.51;109890;1284;22114;-78
2023/10/03 01:44:16;;;;;;;11.10;6.30;;;;;;;12.51;100.00;98320.38;109880;1285;22416;-78
2023/10/03 01:46:45;;;;;;;12.80;5.90;;;;;;;12.48;100.00;98316.88;109877;1284;22271;-78
2023/10/03 01:49:14;;;;;;;9.20;6.60;;;;;;;12.53;100.00;98309.68;109868;1281;22188;-78
2023/10/03 01:51:43;;;;;;;9.50;6.20;;;;;;;12.59;100.00;98307.45;109888;1281;22194;-78
2023/10/03 01:54:12;;;;;;;8.20;6.00;;;;;;;12.66;100.00;98305.71;109778;1285;22279;-78
2023/10/03 01:56:40;;;;;;;12.30;5.80;;;;;;;12.73;100.00;98303.66;109886;1284;22224;-78
2023/10/03 01:59:08;;;;;;;10.10;6.30;;;;;;;12.69;100.00;98307.14;109856;1278;22340;-79
2023/10/03 02:01:37;;;;;;;9.00;6.10;;;;;;;12.55;100.00;98303.70;109869;1273;22117;-79
2023/10/03 02:04:06;;;;;;;9.40;6.50;;;;;;;12.43;100.00;98304.11;109863;1282;22795;-78
2023/10/03 02:06:34;;;;;;;9.90;6.10;;;;;;;12.34;100.00;98302.33;109875;1271;23014;-78
2023/10/03 02:09:03;;;;;;;12.50;6.20;;;;;;;12.25;100.00;98305.37;109772;1284;22902;-80
2023/10/03 02:11:32;;;;;;;9.20;5.50;;;;;;;12.21;100.00;98301.39;109877;1278;22209;-79
2023/10/03 02:14:03;;;;;;;9.20;6.10;;;;;;;12.10;100.00;98298.58;109850;1274;22752;-80
2023/10/03 02:16:34;;;;;;;10.50;6.10;;;;;;;12.01;100.00;98301.17;109878;1273;22214;-79
2023/10/03 02:19:03;;;;;;;9.40;6.00;;;;;;;11.95;100.00;98293.61;109803;1274;22183;-79
2023/10/03 02:21:31;;;;;;;9.30;5.50;;;;;;;11.89;100.00;98290.27;109881;1282;22145;-80
2023/10/03 02:24:00;;;;;;;8.60;6.40;;;;;;;11.81;100.00;98285.27;109901;1285;22786;-80
2023/10/03 02:26:32;;;;;;;10.90;6.40;;;;;;;11.81;100.00;98281.34;109903;1279;22414;-79
2023/10/03 02:29:02;;;;;;;11.40;6.00;;;;;;;11.88;100.00;98280.23;109875;1285;22940;-79
2023/10/03 02:31:33;;;;;;;9.90;6.80;;;;;;;11.83;100.00;98279.15;109874;1278;22233;-79
2023/10/03 02:34:02;;;;;;;11.50;6.10;;;;;;;11.82;100.00;98283.16;109868;1285;22152;-80
2023/10/03 02:36:31;;;;;;;10.90;6.20;;;;;;;11.78;100.00;98286.59;109843;1285;22978;-79
2023/10/03 02:39:00;;;;;;;10.90;6.10;;;;;;;11.71;100.00;98283.52;109864;1285;22235;-79
2023/10/03 02:41:29;;;;;;;11.50;6.30;;;;;;;11.67;100.00;98275.71;109762;1285;22336;-79
2023/10/03 02:43:57;;;;;;;9.20;6.30;;;;;;;11.63;100.00;98277.29;109876;1279;22313;-79
2023/10/03 02:46:26;;;;;;;10.10;6.20;;;;;;;11.60;100.00;98272.20;109786;1285;22930;-79
2023/10/03 02:48:55;;;;;;;9.90;6.50;;;;;;;11.57;100.00;98271.94;109853;1282;22406;-80
2023/10/03 02:51:24;;;;;;;9.90;6.40;;;;;;;11.53;100.00;98264.66;109800;1280;22300;-79
2023/10/03 02:53:52;;;;;;;10.10;6.20;;;;;;;11.51;100.00;98260.64;109778;1280;22938;-79
2023/10/03 02:56:22;;;;;;;12.60;6.50;;;;;;;11.46;100.00;98260.99;109786;1284;22190;-80
2023/10/03 02:58:50;;;;;;;8.80;5.90;;;;;;;11.43;100.00;98258.84;109881;1270;23275;-79
2023/10/03 03:01:21;;;;;;;10.10;5.80;;;;;;;11.36;100.00;98262.68;109787;1284;22309;-79
2023/10/03 03:03:49;;;;;;;9.70;6.90;;;;;;;11.28;100.00;98260.09;109790;1270;22275;-79
2023/10/03 03:06:18;;;;;;;8.60;6.10;;;;;;;11.23;100.00;98262.56;109904;1281;22244;-79
2023/10/03 03:08:46;;;;;;;10.80;6.80;;;;;;;11.19;100.00;98259.39;109901;1285;22364;-79
2023/10/03 03:11:18;;;;;;;8.70;6.30;;;;;;;11.15;100.00;98258.37;109886;1284;22122;-80
2023/10/03 03:13:46;;;;;;;8.10;5.50;;;;;;;11.12;100.00;98260.68;109888;1283;22928;-80
2023/10/03 03:16:15;;;;;;;9.80;6.70;;;;;;;11.13;100.00;98254.88;109893;1283;22424;-79
2023/10/03 03:18:46;;;;;;;7.80;6.60;;;;;;;11.13;100.00;98256.66;109876;1284;22908;-79
2023/10/03 03:21:15;;;;;;;9.40;6.50;;;;;;;11.15;100.00;98254.59;109881;1280;22185;-79
2023/10/03 03:24:00;;;;;;;11.60;6.50;;;;;;;11.14;100.00;98250.88;109860;1285;23139;-80
2023/10/03 03:26:39;;;;;;;7.40;5.80;;;;;;;11.14;100.00;98249.53;109849;1283;23378;-80
2023/10/03 03:29:20;;;;;;;10.10;5.80;;;;;;;11.10;100.00;98244.52;109868;1280;22228;-79
2023/10/03 03:31:50;;;;;;;9.00;6.70;;;;;;;11.08;100.00;98245.31;109885;1270;22376;-80
2023/10/03 03:34:21;;;;;;;10.00;5.80;;;;;;;11.05;100.00;98244.88;109874;1276;22580;-79
2023/10/03 03:36:55;;;;;;;8.00;5.80;;;;;;;10.98;100.00;98250.25;109906;1279;22814;-79
2023/10/03 03:39:26;;;;;;;8.50;6.30;;;;;;;10.91;100.00;98247.39;109858;1270;22296;-80
2023/10/03 03:41:56;;;;;;;8.20;6.20;;;;;;;10.89;100.00;98249.52;109880;1285;22890;-80
2023/10/03 03:44:25;;;;;;;11.90;7.00;;;;;;;10.89;100.00;98238.26;109875;1270;22989;-80
2023/10/03 03:46:54;;;;;;;10.50;6.60;;;;;;;10.88;100.00;98233.32;109889;1278;22572;-80
2023/10/03 03:49:23;;;;;;;9.10;5.90;;;;;;;10.87;100.00;98233.11;109873;1278;22301;-80
2023/10/03 03:51:52;;;;;;;11.90;6.80;;;;;;;10.82;100.00;98228.23;109877;1270;22108;-80
2023/10/03 03:54:20;;;;;;;10.20;6.10;;;;;;;10.81;100.00;98229.69;109884;1285;22951;-80
2023/10/03 03:56:48;;;;;;;9.10;6.60;;;;;;;10.78;100.00;98226.34;109880;1285;22322;-81
2023/10/03 03:59:16;;;;;;;10.80;6.40;;;;;;;10.74;100.00;98226.45;109892;1282;22233;-80
2023/10/03 04:01:44;;;;;;;20.00;18.00;;;;;;;10.70;100.00;98222.25;109809;1282;22168;-80
2023/10/03 04:04:12;;;;;;;11.70;6.80;;;;;;;10.66;100.00;98223.92;109880;1285;22948;-81
2023/10/03 04:06:42;;;;;;;9.60;7.20;;;;;;;10.64;100.00;98221.52;109903;1285;22193;-80
2023/10/03 04:09:10;;;;;;;9.80;6.90;;;;;;;10.66;100.00;98220.20;109894;1284;22199;-80
2023/10/03 04:11:39;;;;;;;9.80;6.70;;;;;;;10.70;100.00;98215.13;109895;1285;22234;-80
2023/10/03 04:14:07;;;;;;;9.40;6.10;;;;;;;10.76;100.00;98212.20;109899;1284;22212;-80
2023/10/03 04:16:39;;;;;;;10.90;6.60;;;;;;;10.70;100.00;98209.90;109897;1285;22339;-81
2023/10/03 04:19:10;;;;;;;12.50;6.30;;;;;;;10.70;100.00;98212.75;109895;1285;22222;-81
2023/10/03 04:21:40;;;;;;;8.90;6.10;;;;;;;10.70;100.00;98208.18;109762;1279;22393;-81
2023/10/03 04:24:11;;;;;;;8.20;6.40;;;;;;;10.66;100.00;98208.02;109910;1285;22358;-81
2023/10/03 04:26:42;;;;;;;10.30;6.70;;;;;;;10.62;100.00;98210.30;109900;1285;22338;-81
2023/10/03 04:29:13;;;;;;;10.00;6.90;;;;;;;10.54;100.00;98209.76;109900;1285;22169;-81
2023/10/03 04:31:43;;;;;;;8.70;5.90;;;;;;;10.51;100.00;98207.80;109846;1273;23465;-80
2023/10/03 04:34:12;;;;;;;11.40;6.40;;;;;;;10.47;100.00;98206.88;109902;1285;22854;-81
2023/10/03 04:36:41;;;;;;;8.90;6.80;;;;;;;10.47;100.00;98204.46;109889;1270;22238;-81
2023/10/03 04:39:11;;;;;;;12.70;6.70;;;;;;;10.48;100.00;98203.75;109885;1285;22232;-81
2023/10/03 04:41:43;;;;;;;8.90;6.50;;;;;;;10.52;100.00;98195.45;109874;1285;22934;-81
2023/10/03 04:44:16;;;;;;;15.60;6.80;;;;;;;10.56;100.00;98194.16;109808;1273;22920;-82
2023/10/03 04:46:45;;;;;;;10.60;6.70;;;;;;;10.57;100.00;98192.36;109800;1285;22870;-81
2023/10/03 04:49:14;;;;;;;10.50;6.60;;;;;;;10.58;100.00;98191.80;109723;1285;22128;-81
2023/10/03 04:51:45;;;;;;;10.00;6.60;;;;;;;10.58;100.00;98190.02;109817;1284;22310;-80
2023/10/03 04:54:16;;;;;;;15.00;9.20;;;;;;;10.54;100.00;98190.04;109793;1271;22293;-81
2023/10/03 04:56:45;;;;;;;10.90;7.80;;;;;;;10.56;100.00;98187.52;109858;1285;22124;-81
2023/10/03 04:59:13;;;;;;;14.80;7.90;;;;;;;10.57;100.00;98187.39;109784;1276;22301;-79
2023/10/03 05:01:43;;;;;;;11.20;8.70;;;;;;;10.59;100.00;98184.78;109777;1272;22117;-80
2023/10/03 05:04:12;;;;;;;10.50;8.10;;;;;;;10.59;100.00;98185.48;109784;1278;22216;-80
2023/10/03 05:06:42;;;;;;;10.40;8.30;;;;;;;10.64;100.00;98181.87;109880;1281;22209;-79
2023/10/03 05:09:11;;;;;;;11.70;7.40;;;;;;;10.67;100.00;98177.07;109881;1278;22280;-78
2023/10/03 05:11:41;;;;;;;9.60;8.00;;;;;;;10.74;100.00;98178.31;109857;1274;22419;-80
2023/10/03 05:14:12;;;;;;;10.10;7.20;;;;;;;10.78;100.00;98176.41;109900;1273;22216;-78
2023/10/03 05:16:40;;;;;;;10.60;7.70;;;;;;;10.82;100.00;98179.80;109851;1284;23037;-78
2023/10/03 05:19:09;;;;;;;10.00;7.50;;;;;;;10.91;100.00;98174.23;109903;1280;22199;-78
2023/10/03 05:21:38;;;;;;;11.90;7.40;;;;;;;10.98;100.00;98178.13;109878;1278;22285;-77
2023/10/03 05:24:10;;;;;;;10.10;7.60;;;;;;;11.00;100.00;98173.73;109903;1285;22240;-82
2023/10/03 05:26:38;;;;;;;11.80;7.60;;;;;;;11.07;100.00;98171.70;109856;1278;22365;-78
2023/10/03 05:29:07;;;;;;;11.10;7.80;;;;;;;11.20;100.00;98174.52;109887;1270;22113;-79
2023/10/03 05:31:37;;;;;;;13.70;8.20;;;;;;;11.30;100.00;98169.97;109891;1280;22272;-81
2023/10/03 05:34:06;;;;;;;11.10;7.60;;;;;;;11.43;100.00;98176.98;109909;1284;22206;-81
2023/10/03 05:36:34;;;;;;;10.80;7.60;;;;;;;11.56;100.00;98172.84;109859;1280;22200;-81
2023/10/03 05:39:03;;;;;;;10.80;7.60;;;;;;;11.72;100.00;98176.81;109896;1277;22811;-84
2023/10/03 05:41:31;;;;;;;10.20;8.00;;;;;;;11.86;100.00;98178.72;109882;1281;22249;-81
2023/10/03 05:43:59;;;;;;;12.50;7.70;;;;;;;12.00;100.00;98177.61;109934;1278;22222;-80
2023/10/03 05:46:28;;;;;;;12.10;8.00;;;;;;;12.14;100.00;98174.56;109858;1284;22284;-76
2023/10/03 05:48:56;;;;;;;14.50;8.40;;;;;;;12.26;100.00;98177.71;109797;1285;22918;-84
2023/10/03 05:51:24;;;;;;;12.40;8.30;;;;;;;12.38;100.00;98179.95;109903;1277;22199;-84
2023/10/03 05:53:52;;;;;;;15.60;8.00;;;;;;;12.52;100.00;98182.23;109835;1278;22251;-82
2023/10/03 05:56:20;;;;;;;11.70;8.30;;;;;;;12.69;100.00;98179.21;109867;1284;22203;-82
2023/10/03 05:58:52;;;;;;;12.10;8.00;;;;;;;12.87;100.00;98171.88;109944;1285;22223;-82
2023/10/03 06:01:20;;;;;;;13.30;7.20;;;;;;;13.05;100.00;98176.05;109928;1284;23029;-82
2023/10/03 06:03:47;;;;;;;12.10;8.20;;;;;;;13.24;100.00;98176.58;109884;1284;22145;-82
2023/10/03 06:06:16;;;;;;;13.50;8.40;;;;;;;13.44;100.00;98172.72;109904;1284;22207;-82
2023/10/03 06:08:48;;;;;;;10.20;7.60;;;;;;;13.64;100.00;98183.61;109896;1284;22307;-82
2023/10/03 06:11:17;;;;;;;10.90;8.10;;;;;;;13.84;100.00;98178.16;109898;1281;22131;-82
2023/10/03 06:13:45;;;;;;;10.90;7.50;;;;;;;14.01;100.00;98175.54;109909;1284;22213;-82
2023/10/03 06:16:14;;;;;;;13.50;8.30;;;;;;;14.18;100.00;98176.23;109891;1284;22212;-82
2023/10/03 06:18:43;;;;;;;11.40;7.90;;;;;;;14.32;100.00;98173.95;109903;1284;22162;-83
2023/10/03 06:21:11;;;;;;;10.20;7.40;;;;;;;14.48;100.00;98173.98;109912;1284;22116;-83
2023/10/03 06:23:39;;;;;;;11.40;7.90;;;;;;;14.64;100.00;98173.68;109906;1284;22927;-83
2023/10/03 06:26:07;;;;;;;9.90;7.90;;;;;;;14.81;100.00;98173.17;109921;1284;22983;-83
2023/10/03 06:28:35;;;;;;;10.40;7.90;;;;;;;14.96;100.00;98173.21;109908;1285;22204;-83
2023/10/03 06:31:03;;;;;;;13.00;7.60;;;;;;;15.10;100.00;98173.90;109891;1278;22299;-83
2023/10/03 06:33:32;;;;;;;12.50;7.90;;;;;;;15.22;100.00;98172.77;109921;1284;22209;-82
2023/10/03 06:36:06;;;;;;;9.80;7.60;;;;;;;15.34;100.00;98172.23;109894;1269;22696;-83
2023/10/03 06:38:36;;;;;;;10.20;7.80;;;;;;;15.50;100.00;98170.08;109860;1284;22244;-83
2023/10/03 06:41:05;;;;;;;12.10;7.50;;;;;;;15.64;100.00;98165.41;109810;1284;22326;-82
2023/10/03 06:43:33;;;;;;;11.90;7.90;;;;;;;15.77;100.00;98164.17;109901;1285;22225;-82
2023/10/03 06:46:03;;;;;;;10.80;8.00;;;;;;;15.88;100.00;98165.27;109875;1279;22876;-82
2023/10/03 06:48:31;;;;;;;10.30;7.60;;;;;;;16.00;100.00;98164.07;109910;1284;22222;-82
2023/10/03 06:51:04;;;;;;;13.50;7.90;;;;;;;16.09;100.00;98160.35;109898;1284;22204;-82
2023/10/03 06:53:32;;;;;;;12.50;8.10;;;;;;;16.22;100.00;98160.98;109889;1281;22273;-80
2023/10/03 06:56:00;;;;;;;11.30;7.50;;;;;;;16.35;100.00;98163.99;109908;1284;22123;-83
2023/10/03 07:09:49;;;;;;;9.80;7.90;;;;;;;17.28;100.00;98163.80;104672;1298;557540;-77
2023/10/03 07:12:17;;;;;;;14.10;8.20;;;;;;;17.53;100.00;98166.23;106055;1281;114798;-78
2023/10/03 07:14:48;;;;;;;10.90;7.90;;;;;;;17.56;100.00;98166.27;106250;1284;22571;-77
2023/10/03 07:17:16;;;;;;;14.00;8.60;;;;;;;17.59;100.00;98165.86;106275;1285;25427;-78
2023/10/03 07:19:48;;;;;;;12.40;8.20;;;;;;;17.59;100.00;98160.77;106780;1278;22691;-78
2023/10/03 07:22:20;;;;;;;13.00;8.10;;;;;;;17.62;100.00;98160.93;106787;1278;23883;-78
2023/10/03 07:24:51;;;;;;;11.90;7.60;;;;;;;17.66;100.00;98162.46;106708;1282;22547;-77
2023/10/03 07:27:19;;;;;;;14.50;8.20;;;;;;;17.71;100.00;98162.86;106763;1282;24379;-79
2023/10/03 07:29:47;;;;;;;19.30;9.60;;;;;;;17.76;100.00;98154.30;106696;1282;23352;-78
2023/10/03 07:32:16;;;;;;;13.70;8.40;;;;;;;17.79;100.00;98155.66;106733;1269;25493;-78
2023/10/03 07:34:46;;;;;;;11.10;8.70;;;;;;;17.83;100.00;98156.05;106684;1282;23013;-77
2023/10/03 07:37:16;;;;;;;9.50;8.40;;;;;;;17.89;100.00;98151.08;106709;1282;24680;-78
2023/10/03 07:39:44;;;;;;;13.60;8.70;;;;;;;17.93;100.00;98152.84;106633;1282;25457;-78
2023/10/03 07:42:11;;;;;;;12.50;8.50;;;;;;;17.98;100.00;98146.85;106656;1266;22522;-77
2023/10/03 07:44:40;;;;;;;17.60;9.10;;;;;;;18.04;100.00;98149.55;106662;1282;22553;-78
2023/10/03 07:47:07;;;;;;;17.90;8.80;;;;;;;18.12;100.00;98144.03;106693;1269;23911;-78
2023/10/03 07:49:36;;;;;;;11.60;8.40;;;;;;;18.21;100.00;98140.09;106788;1267;24286;-79
2023/10/03 07:52:04;;;;;;;11.80;8.00;;;;;;;18.27;100.00;98140.20;106722;1282;22602;-78
2023/10/03 07:54:36;;;;;;;14.80;9.00;;;;;;;18.33;100.00;98138.81;106700;1282;24376;-78
2023/10/03 07:57:05;;;;;;;18.20;9.00;;;;;;;18.38;100.00;98134.67;106704;1282;22638;-77
2023/10/03 07:59:33;;;;;;;16.40;7.90;;;;;;;18.45;100.00;98130.30;106644;1272;24303;-77
2023/10/03 08:02:05;;;;;;;11.90;8.60;;;;;;;18.51;100.00;98128.17;106557;1282;23910;-77
2023/10/03 08:04:33;;;;;;;10.90;7.80;;;;;;;18.55;100.00;98125.04;106708;1280;23263;-77
2023/10/03 08:07:04;;;;;;;11.70;8.50;;;;;;;18.59;99.74;98123.69;106622;1268;22717;-78
2023/10/03 08:09:33;;;;;;;10.90;7.80;;;;;;;18.67;99.97;98120.25;106568;1282;25242;-78
2023/10/03 08:12:11;;;;;;;14.90;8.60;;;;;;;18.77;99.84;98120.48;106556;1278;23466;-78
2023/10/03 08:14:40;;;;;;;14.70;8.60;;;;;;;18.88;99.41;98116.33;106621;1267;22537;-77
2023/10/03 08:17:11;;;;;;;13.00;8.40;;;;;;;18.97;98.70;98113.94;106598;1273;22785;-77
2023/10/03 08:19:43;;;;;;;14.60;8.30;;;;;;;19.07;98.94;98111.86;106690;1269;24223;-77
2023/10/03 08:22:15;;;;;;;15.30;8.80;;;;;;;19.18;99.08;98109.27;106723;1277;22527;-77
2023/10/03 08:24:46;;;;;;;14.40;7.90;;;;;;;19.27;98.64;98109.48;106838;1274;25531;-78
2023/10/03 08:27:21;;;;;;;11.70;8.20;;;;;;;19.36;98.57;98108.23;107132;1279;25352;-78
2023/10/03 08:29:57;;;;;;;15.40;7.90;;;;;;;19.44;97.57;98102.20;106916;1280;22540;-77
2023/10/03 08:32:26;;;;;;;12.40;8.20;;;;;;;19.53;96.82;98105.70;106848;1279;22526;-78
2023/10/03 08:34:54;;;;;;;14.30;7.70;;;;;;;19.60;96.21;98100.80;106776;1278;22626;-77
2023/10/03 08:37:22;;;;;;;14.40;7.90;;;;;;;19.68;96.64;98099.85;106843;1279;22568;-77
2023/10/03 08:39:51;;;;;;;11.00;7.60;;;;;;;19.79;96.00;98099.64;106831;1267;25250;-77
2023/10/03 08:42:34;;;;;;;13.20;7.30;;;;;;;19.92;95.31;98096.27;106876;1272;26666;-78
2023/10/03 08:45:16;;;;;;;16.60;9.00;;;;;;;20.04;95.33;98092.63;106904;1268;22591;-78
2023/10/03 08:47:50;;;;;;;12.10;7.70;;;;;;;20.15;95.05;98091.16;106856;1280;25378;-76
2023/10/03 08:50:40;;;;;;;13.80;7.80;;;;;;;20.27;95.08;98085.55;106850;1272;23054;-77
2023/10/03 08:53:17;;;;;;;10.40;7.80;;;;;;;20.41;95.12;98079.92;106818;1265;22908;-77
2023/10/03 08:55:49;;;;;;;14.70;7.60;;;;;;;20.53;94.34;98078.01;106748;1279;23894;-77
2023/10/03 08:58:25;;;;;;;10.00;7.90;;;;;;;20.67;93.92;98080.55;106744;1275;23220;-79
2023/10/03 09:01:03;;;;;;;12.30;7.20;;;;;;;20.79;93.68;98078.61;106727;1280;22581;-77
2023/10/03 09:03:48;;;;;;;10.80;7.30;;;;;;;20.93;92.22;98072.85;106844;1266;24218;-78
2023/10/03 09:06:23;;;;;;;11.90;7.40;;;;;;;21.07;92.23;98067.23;106816;1280;22527;-77
2023/10/03 09:09:09;;;;;;;9.10;7.20;;;;;;;21.18;90.91;98067.11;106634;1280;22660;-78
2023/10/03 09:11:38;;;;;;;10.40;7.30;;;;;;;21.33;91.58;98065.02;106821;1279;23855;-77
2023/10/03 09:14:07;;;;;;;9.30;7.40;;;;;;;21.44;90.19;98063.58;106868;1278;22634;-77
2023/10/03 09:16:39;;;;;;;14.60;7.80;;;;;;;21.54;88.52;98061.78;106810;1263;24246;-79
2023/10/03 09:19:12;;;;;;;10.70;7.20;;;;;;;21.62;86.73;98062.31;106802;1280;22547;-78
2023/10/03 09:21:40;;;;;;;9.80;7.20;;;;;;;21.72;87.41;98057.20;107020;1279;22547;-77
2023/10/03 09:24:20;;;;;;;11.50;7.20;;;;;;;21.85;86.65;98059.14;106827;1279;22532;-77
2023/10/03 09:26:52;;;;;;;8.80;6.60;;;;;;;21.98;84.86;98053.45;106832;1280;22538;-79
2023/10/03 09:29:31;;;;;;;11.30;6.90;;;;;;;22.10;85.17;98050.08;106941;1275;25574;-79
2023/10/03 09:32:13;;;;;;;9.30;7.10;;;;;;;22.22;82.64;98051.21;106838;1279;22520;-78
2023/10/03 09:34:43;;;;;;;9.00;7.00;;;;;;;22.33;84.26;98049.40;106839;1280;24365;-78
2023/10/03 09:37:11;;;;;;;9.60;7.00;;;;;;;22.44;83.15;98042.00;106935;1280;25355;-78
2023/10/03 09:39:47;;;;;;;9.50;7.40;;;;;;;22.57;81.26;98049.60;106815;1279;23139;-78
2023/10/03 09:42:23;;;;;;;9.70;7.40;;;;;;;22.68;82.22;98048.17;106973;1279;25314;-78
2023/10/03 09:44:57;;;;;;;13.80;7.30;;;;;;;22.78;79.97;98047.09;107170;1275;23408;-78
2023/10/03 09:47:30;;;;;;;12.20;8.10;;;;;;;22.85;76.96;98047.41;106937;1257;22582;-77
2023/10/03 09:50:04;;;;;;;11.30;7.20;;;;;;;22.88;76.31;98048.55;106797;1279;22659;-78
2023/10/03 09:52:33;;;;;;;9.80;7.00;;;;;;;22.94;73.89;98052.08;106836;1279;22517;-78
2023/10/03 09:55:17;;;;;;;11.90;7.90;;;;;;;23.00;74.95;98051.77;106923;1267;22643;-77
2023/10/03 09:57:46;;;;;;;;;;;;;;;23.09;73.69;98050.52;106839;1279;22508;-77
2023/10/03 10:00:25;;;;;;;12.30;7.50;;;;;;;23.09;69.66;98051.38;106871;1268;22534;-78
2023/10/03 10:03:05;;;;;;;12.40;7.10;;;;;;;23.12;71.92;98045.59;106864;1268;25310;-77
2023/10/03 10:05:35;;;;;;;9.80;6.90;;;;;;;23.21;70.35;98041.91;106626;1279;23355;-77
2023/10/03 10:08:21;;;;;;;11.80;7.60;;;;;;;23.33;71.64;98039.89;106751;1268;25702;-77
2023/10/03 10:11:07;;;;;;;10.30;7.50;;;;;;;23.47;70.30;98041.11;106831;1265;22640;-77
2023/10/03 10:13:41;;;;;;;10.50;7.90;;;;;;;23.57;70.57;98035.60;106795;1269;23174;-77
2023/10/03 10:18:45;;;;;;;11.30;7.50;;;;;;;23.76;70.95;98030.98;106780;1266;24321;-77
2023/10/03 10:21:25;;;;;;;10.80;7.90;;;;;;;23.89;69.60;98027.36;106778;1263;22616;-77
2023/10/03 10:24:15;;;;;;;13.50;7.80;;;;;;;24.02;68.98;98027.12;106773;1279;22982;-78
2023/10/03 10:26:55;;;;;;;11.90;7.70;;;;;;;24.05;66.96;98020.77;106809;1280;24279;-78
2023/10/03 10:29:24;;;;;;;13.40;7.90;;;;;;;24.09;66.27;98017.64;106805;1279;22530;-76
2023/10/03 10:31:58;;;;;;;11.30;7.90;;;;;;;24.08;67.68;98012.14;106846;1280;22754;-77
2023/10/03 10:34:29;;;;;;;9.80;7.30;;;;;;;24.19;67.53;98010.23;106837;1268;22643;-77
2023/10/03 10:37:07;;;;;;;11.30;7.80;;;;;;;24.32;67.68;98010.89;106886;1280;24395;-77
2023/10/03 10:39:54;;;;;;;13.80;7.60;;;;;;;24.48;67.32;98000.45;106765;1280;25093;-77
2023/10/03 10:42:26;;;;;;;14.80;8.10;;;;;;;24.68;67.33;97998.70;106827;1266;24228;-78
2023/10/03 10:45:04;;;;;;;11.20;7.70;;;;;;;24.76;65.71;97999.66;106832;1280;22717;-77
2023/10/03 10:47:35;;;;;;;12.00;7.90;;;;;;;24.81;64.96;97997.86;106872;1259;25596;-78
2023/10/03 10:50:07;;;;;;;13.20;7.60;;;;;;;24.78;63.51;97993.85;106774;1280;22548;-77
2023/10/03 10:53:10;;;;;;;11.00;7.80;;;;;;;24.81;64.28;97990.61;106879;1280;26140;-77
2023/10/03 10:55:39;;;;;;;9.60;7.30;;;;;;;24.93;62.70;97992.52;106600;1278;24239;-78
2023/10/03 10:58:17;;;;;;;10.20;7.40;;;;;;;25.01;60.85;97989.08;106826;1278;22651;-78
2023/10/03 11:00:45;;;;;;;11.90;7.70;;;;;;;25.15;63.28;97983.98;106847;1281;22561;-77
2023/10/03 11:03:20;;;;;;;11.70;7.90;;;;;;;25.30;60.85;97978.55;106864;1279;22570;-77
2023/10/03 11:05:52;;;;;;;14.10;8.00;;;;;;;25.39;60.96;97979.25;106823;1279;22525;-78
2023/10/03 11:08:21;;;;;;;13.30;8.00;;;;;;;25.47;60.97;97973.17;106886;1269;22851;-78
2023/10/03 11:10:54;;;;;;;11.00;7.70;;;;;;;25.54;59.64;97975.29;106841;1268;22559;-77
2023/10/03 11:13:23;;;;;;;10.90;8.10;;;;;;;25.57;57.89;97973.86;106866;1273;24272;-77
2023/10/03 11:15:53;;;;;;;9.60;7.30;;;;;;;25.54;56.37;97966.55;106936;1280;25428;-77
2023/10/03 11:18:30;;;;;;;13.40;7.30;;;;;;;25.49;55.64;97962.94;106881;1279;25415;-78
2023/10/03 11:21:02;;;;;;;10.70;8.00;;;;;;;25.49;56.61;97959.63;106863;1268;25229;-78
2023/10/03 11:23:31;;;;;;;10.40;7.10;;;;;;;25.54;58.20;97958.28;106884;1279;25297;-77
2023/10/03 11:26:01;;;;;;;14.70;8.50;;;;;;;25.65;55.86;97953.83;106913;1279;24407;-77
2023/10/03 11:28:29;;;;;;;13.40;8.10;;;;;;;25.68;55.60;97951.62;106856;1279;24371;-77
2023/10/03 11:31:02;;;;;;;12.50;8.00;;;;;;;25.76;56.09;97950.41;106816;1266;22576;-77
2023/10/03 11:33:44;;;;;;;12.30;8.00;;;;;;;25.94;57.06;97942.66;106872;1268;22543;-77
2023/10/03 11:36:14;;;;;;;12.10;7.80;;;;;;;26.07;56.21;97943.80;106964;1262;22554;-78
2023/10/03 11:38:46;;;;;;;13.00;8.50;;;;;;;26.20;55.75;97940.11;106825;1279;24256;-78
2023/10/03 11:41:31;;;;;;;14.60;8.30;;;;;;;26.20;52.79;97935.77;106840;1279;23885;-77
2023/10/03 11:44:00;;;;;;;14.20;8.10;;;;;;;26.11;53.00;97930.45;106912;1279;25518;-78
2023/10/03 11:46:43;;;;;;;12.60;7.40;;;;;;;26.20;54.03;97928.20;107012;1279;22535;-77